Lianping, China
Current Conditions -  °F | °C
As of 11:00 AM on Friday 19 Dec 2014 (Local Time) from ZGGG Reporting Station
Light Rain Light Rain  
Wind Chill: 54°   Ceiling: Unl
Heat Index: 54°   Visibility: 5mi
Dew Point: 41°   Wind: 7mph
Humidity: 62%   Direction: 330°NNW
Pressure: 30.33"   Gusts: NA
Location:  24.37°N, 114.48°E
Report Text: ZGGG 190300Z 33003MPS 310V010 8000 -RA NSC 12/05 Q1027 NOSIG
Loading
Personal Weather Stations






























Interactive Weather Map New forecast layout! Learn more

10-Day Weather Forecast

Advertisements
Track Severe Weather on mobile